Time;durP1;ratioP1;P1;durP2;ratioP2;P2;SDS_P1;SDS_P2;PMS_P1;PMS_P2;Temp;Humidity;BMP_temperature;BMP_pressure;BME280_temperature;BME280_humidity;BME280_pressure;Samples;Min_cycle;Max_cycle;Signal;HPM_P1;HPM_P2
2024/01/07 00:00:51;;;;;;;8.33;8.13;;;;;;;-141.02;100.00;38989.03;5112414;28;20280;-74
2024/01/07 00:03:20;;;;;;;8.30;8.10;;;;;;;-141.02;100.00;38958.38;5112363;28;20315;-74
2024/01/07 00:05:47;;;;;;;8.00;7.80;;;;;;;-141.02;100.00;38998.63;5112360;28;20231;-74
2024/01/07 00:08:14;;;;;;;8.70;8.50;;;;;;;-141.02;100.00;38990.97;5112076;28;20200;-74
2024/01/07 00:10:41;;;;;;;8.20;8.00;;;;;;;-141.02;100.00;39027.41;5112063;28;20667;-74
2024/01/07 00:13:08;;;;;;;8.77;8.57;;;;;;;-141.02;100.00;39052.31;5112064;28;20567;-74
2024/01/07 00:15:35;;;;;;;8.30;8.10;;;;;;;-141.02;100.00;39052.31;5111947;28;20311;-74
2024/01/07 00:18:02;;;;;;;8.00;7.80;;;;;;;-141.02;100.00;39048.50;5112300;28;20288;-74
2024/01/07 00:20:30;;;;;;;8.20;8.00;;;;;;;-141.02;100.00;39046.56;5114382;28;20188;-71
2024/01/07 00:22:57;;;;;;;8.00;7.80;;;;;;;-141.02;100.00;39098.34;5115922;28;20292;-71
2024/01/07 00:25:24;;;;;;;8.13;7.93;;;;;;;-141.02;100.00;39086.84;5115764;28;20280;-74
2024/01/07 00:27:55;;;;;;;8.00;7.80;;;;;;;-141.02;100.00;39138.63;5115970;28;20276;-73
2024/01/07 00:30:22;;;;;;;7.77;7.57;;;;;;;-141.02;100.00;39198.06;5115604;28;20181;-73
2024/01/07 00:32:51;;;;;;;8.10;7.90;;;;;;;-141.02;100.00;39153.97;5115971;28;20193;-74
2024/01/07 00:35:18;;;;;;;7.80;7.60;;;;;;;-141.02;100.00;39188.47;5115530;28;20658;-74
2024/01/07 00:37:46;;;;;;;7.80;7.60;;;;;;;-141.02;100.00;39255.59;5115848;28;20197;-73
2024/01/07 00:40:13;;;;;;;7.80;7.60;;;;;;;-141.02;100.00;39228.75;5115657;28;20276;-73
2024/01/07 00:42:40;;;;;;;7.60;7.40;;;;;;;-141.02;100.00;39234.50;5115607;28;20259;-74
2024/01/07 00:45:09;;;;;;;8.00;7.80;;;;;;;-141.02;100.00;39240.25;5115413;28;20240;-74
2024/01/07 00:47:36;;;;;;;8.40;8.20;;;;;;;-141.02;100.00;39251.75;5115284;28;20193;-75
2024/01/07 00:50:04;;;;;;;8.50;8.30;;;;;;;-141.02;100.00;39293.94;5115510;28;20276;-73
2024/01/07 00:52:31;;;;;;;8.40;8.20;;;;;;;-141.02;100.00;39293.94;5115234;27;20250;-74
2024/01/07 00:55:00;;;;;;;7.90;7.70;;;;;;;-141.02;100.00;39247.91;5115464;28;20193;-74
2024/01/07 00:57:27;;;;;;;8.27;8.07;;;;;;;-141.02;100.00;39286.28;5115128;28;20284;-74
2024/01/07 00:59:54;;;;;;;8.70;8.50;;;;;;;-141.02;100.00;39284.34;5115368;28;20285;-74
2024/01/07 01:02:21;;;;;;;8.80;8.60;;;;;;;-141.02;100.00;39301.63;5115296;28;20315;-74
2024/01/07 01:04:49;;;;;;;9.10;8.90;;;;;;;-141.02;100.00;39305.44;5115014;28;20242;-73
2024/01/07 01:07:17;;;;;;;8.80;8.60;;;;;;;-141.02;100.00;39301.63;5114958;28;20200;-73
2024/01/07 01:09:44;;;;;;;8.93;8.73;;;;;;;-141.02;100.00;39311.22;5115176;28;20285;-74
2024/01/07 01:12:13;;;;;;;9.50;9.20;;;;;;;-141.02;100.00;39320.78;5115191;28;20277;-74
2024/01/07 01:14:40;;;;;;;9.43;9.13;;;;;;;-141.02;100.00;39301.63;5114599;28;20264;-74
2024/01/07 01:17:06;;;;;;;9.50;9.20;;;;;;;-141.02;100.00;39274.78;5115007;28;20276;-74
2024/01/07 01:19:33;;;;;;;9.40;9.10;;;;;;;-141.02;100.00;39293.94;5115025;28;20291;-74
2024/01/07 01:22:00;;;;;;;9.20;8.90;;;;;;;-141.02;100.00;39290.13;5114822;28;20263;-73
2024/01/07 01:24:27;;;;;;;9.40;9.10;;;;;;;-141.02;100.00;39251.75;5114902;28;20272;-74
2024/01/07 01:26:54;;;;;;;8.95;8.75;;;;;;;-141.02;100.00;39265.19;5114837;28;20193;-74
2024/01/07 01:29:23;;;;;;;9.00;8.80;;;;;;;-141.02;100.00;39284.34;5114771;28;20216;-74
2024/01/07 01:31:50;;;;;;;8.82;8.63;;;;;;;-141.02;100.00;39290.13;5114214;28;20272;-74
2024/01/07 01:34:17;;;;;;;9.00;8.80;;;;;;;-141.02;100.00;39288.19;5114684;28;20224;-75
2024/01/07 01:36:44;;;;;;;8.70;8.50;;;;;;;-141.02;100.00;39274.78;5114391;28;20207;-75
2024/01/07 01:39:11;;;;;;;8.60;8.40;;;;;;;-141.02;100.00;39284.34;5114275;28;20695;-75
2024/01/07 01:41:37;;;;;;;8.47;8.27;;;;;;;-141.02;100.00;39320.78;5114524;28;20597;-75
2024/01/07 01:44:05;;;;;;;8.67;8.47;;;;;;;-141.02;100.00;39332.31;5114132;28;20316;-74
2024/01/07 01:46:33;;;;;;;8.90;8.70;;;;;;;-141.02;100.00;39313.13;5114119;28;20734;-74
2024/01/07 01:49:01;;;;;;;8.60;8.40;;;;;;;-141.02;100.00;39343.81;5114125;28;20296;-75
2024/01/07 01:51:28;;;;;;;8.35;8.15;;;;;;;-141.02;100.00;39318.88;5114272;28;20189;-74
2024/01/07 01:53:57;;;;;;;8.10;7.90;;;;;;;-141.02;100.00;39343.81;5114382;28;20197;-74
2024/01/07 01:56:28;;;;;;;8.50;8.30;;;;;;;-141.02;100.00;39332.31;5114197;28;20200;-75
2024/01/07 01:58:55;;;;;;;8.40;8.20;;;;;;;-141.02;100.00;39326.56;5114298;28;20272;-74
2024/01/07 02:01:24;;;;;;;8.33;8.13;;;;;;;-141.02;100.00;39424.34;5113886;28;20193;-75
2024/01/07 02:03:53;;;;;;;8.33;8.13;;;;;;;-141.02;100.00;39391.75;5114091;28;20233;-75
2024/01/07 02:06:21;;;;;;;8.50;8.30;;;;;;;-141.02;100.00;39428.19;5113781;28;20663;-76
2024/01/07 02:08:49;;;;;;;8.60;8.40;;;;;;;-141.02;100.00;39393.66;5113973;28;20221;-74
2024/01/07 02:11:17;;;;;;;8.40;8.20;;;;;;;-141.02;100.00;39397.50;5113602;28;20197;-74
2024/01/07 02:13:44;;;;;;;8.20;8.00;;;;;;;-141.02;100.00;39386.00;5113603;28;20280;-74
2024/01/07 02:16:12;;;;;;;8.70;8.50;;;;;;;-141.02;100.00;39410.94;5113455;28;20235;-75
2024/01/07 02:18:43;;;;;;;8.80;8.60;;;;;;;-141.02;100.00;39428.19;5113541;28;20711;-74
2024/01/07 02:21:13;;;;;;;8.90;8.70;;;;;;;-141.02;100.00;39376.41;5113788;28;20638;-74
2024/01/07 02:23:40;;;;;;;8.60;8.40;;;;;;;-141.02;100.00;39403.25;5113361;28;20304;-74
2024/01/07 02:26:09;;;;;;;8.53;8.33;;;;;;;-141.02;100.00;39435.88;5113699;28;20197;-75
2024/01/07 02:28:35;;;;;;;8.30;8.10;;;;;;;-141.02;100.00;39428.19;5113379;28;20239;-75
2024/01/07 02:31:02;;;;;;;8.70;8.50;;;;;;;-141.02;100.00;39395.59;5113253;28;20189;-75
2024/01/07 02:33:30;;;;;;;8.50;8.30;;;;;;;-141.02;100.00;39424.34;5113505;28;20193;-73
2024/01/07 02:35:57;;;;;;;10.70;10.40;;;;;;;-141.02;100.00;39397.50;5113529;28;20192;-72
2024/01/07 02:38:24;;;;;;;8.77;8.57;;;;;;;-141.02;100.00;39393.66;5114273;28;20276;-73
2024/01/07 02:40:52;;;;;;;8.43;8.23;;;;;;;-141.02;100.00;39424.34;5113163;28;20671;-73
2024/01/07 02:43:21;;;;;;;8.30;8.10;;;;;;;-141.02;100.00;39432.03;5112113;28;20229;-72
2024/01/07 02:45:48;;;;;;;8.30;8.10;;;;;;;-141.02;100.00;39432.03;5113076;28;20232;-72
2024/01/07 02:48:15;;;;;;;8.05;7.85;;;;;;;-141.02;100.00;39466.53;5112969;28;20241;-71
2024/01/07 02:50:42;;;;;;;8.30;8.10;;;;;;;-141.02;100.00;39481.88;5112934;28;20207;-72
2024/01/07 02:53:10;;;;;;;8.00;7.80;;;;;;;-141.02;100.00;39485.72;5112997;28;20197;-72
2024/01/07 02:55:37;;;;;;;7.90;7.70;;;;;;;-141.02;100.00;39439.69;5113102;28;20201;-72
2024/01/07 02:58:04;;;;;;;7.60;7.40;;;;;;;-141.02;100.00;39516.41;5112851;28;20280;-71
2024/01/07 03:00:33;;;;;;;8.10;7.90;;;;;;;-141.02;100.00;39547.09;5113002;28;20205;-71
2024/01/07 03:03:00;;;;;;;8.17;7.97;;;;;;;-141.02;100.00;39554.78;5113003;28;20319;-73
2024/01/07 03:05:29;;;;;;;7.90;7.70;;;;;;;-141.02;100.00;39593.13;5112784;28;20232;-73
2024/01/07 03:07:56;;;;;;;8.05;7.85;;;;;;;-141.02;100.00;39593.13;5113024;28;20243;-72
2024/01/07 03:10:23;;;;;;;7.70;7.50;;;;;;;-141.02;100.00;39643.00;5112669;28;20662;-72
2024/01/07 03:12:50;;;;;;;8.00;7.80;;;;;;;-141.02;100.00;39677.50;5112934;28;20224;-73
2024/01/07 03:15:17;;;;;;;8.10;7.90;;;;;;;-141.02;100.00;39673.69;5112530;28;20307;-72
2024/01/07 03:17:45;;;;;;;7.70;7.50;;;;;;;-141.02;100.00;39708.19;5112602;28;20215;-72
2024/01/07 03:20:12;;;;;;;7.90;7.70;;;;;;;-141.02;100.00;39646.81;5112596;28;20199;-70
2024/01/07 03:22:39;;;;;;;7.82;7.63;;;;;;;-141.02;100.00;39790.69;5112795;28;20231;-72
2024/01/07 03:25:08;;;;;;;7.63;7.43;;;;;;;-141.02;100.00;39723.53;5112752;28;20201;-72
2024/01/07 03:27:35;;;;;;;7.90;7.70;;;;;;;-141.02;100.00;39758.06;5112453;28;20288;-72
2024/01/07 03:30:02;;;;;;;7.82;7.63;;;;;;;-141.02;100.00;39727.38;5112734;28;20228;-72
2024/01/07 03:32:29;;;;;;;8.63;8.43;;;;;;;-141.02;100.00;39731.22;5112461;28;20193;-73
2024/01/07 03:34:57;;;;;;;9.70;9.40;;;;;;;-141.02;100.00;39355.31;5112405;28;20201;-69
2024/01/07 03:37:24;;;;;;;10.03;9.73;;;;;;;-141.02;100.00;39175.06;5112350;28;20193;-70
2024/01/07 03:39:51;;;;;;;10.20;9.90;;;;;;;-141.02;100.00;39086.84;5112672;28;20189;-73
2024/01/07 03:42:19;;;;;;;9.80;9.50;;;;;;;-141.02;100.00;39052.31;5112601;28;20228;-73
2024/01/07 03:44:46;;;;;;;9.40;9.10;;;;;;;-141.02;100.00;39017.81;5112455;28;20221;-73
2024/01/07 03:47:13;;;;;;;9.50;9.20;;;;;;;-141.02;100.00;39086.84;5112558;28;20577;-74
2024/01/07 03:49:40;;;;;;;12.77;12.37;;;;;;;-141.02;100.00;39194.22;5112515;28;20236;-71
2024/01/07 03:52:08;;;;;;;22.40;21.50;;;;;;;-141.02;100.00;39412.84;5112281;28;20659;-69
2024/01/07 03:54:35;;;;;;;27.33;26.03;;;;;;;-141.02;100.00;39650.66;5113179;28;20281;-70
2024/01/07 03:57:02;;;;;;;27.07;25.87;;;;;;;-141.02;100.00;39986.31;5116580;28;20279;-69
2024/01/07 03:59:29;;;;;;;24.83;23.73;;;;;;;-141.02;100.00;40475.47;5116268;28;20738;-70
2024/01/07 04:01:58;;;;;;;23.70;22.70;;;;;;;-141.02;100.00;41187.28;5116513;28;20279;-69
2024/01/07 04:04:24;;;;;;;23.23;22.23;;;;;;;-141.02;100.00;42056.59;5116045;28;20224;-70
2024/01/07 04:06:51;;;;;;;24.27;23.17;;;;;;;-141.02;100.00;42912.72;5116482;27;20594;-68
2024/01/07 04:09:20;;;;;;;23.40;22.40;;;;;;;-141.02;100.00;44210.75;5116364;28;20232;-69
2024/01/07 04:11:47;;;;;;;24.37;23.37;;;;;;;-141.02;100.00;45113.53;5116018;28;20288;-68
2024/01/07 04:14:15;;;;;;;23.67;22.67;;;;;;;-141.02;100.00;46062.66;5116068;28;20316;-71
2024/01/07 04:16:42;;;;;;;22.77;21.77;;;;;;;-141.02;100.00;47156.22;5116273;28;20247;-67
2024/01/07 04:19:09;;;;;;;20.00;19.20;;;;;;;-141.02;100.00;48586.66;5116240;28;20193;-66
2024/01/07 04:21:36;;;;;;;21.60;20.70;;;;;;;-141.02;100.00;50535.25;5116771;28;20272;-66
2024/01/07 04:24:03;;;;;;;19.50;18.70;;;;;;;-141.02;100.00;52600.47;5115947;28;20235;-70
2024/01/07 04:26:31;;;;;;;20.07;19.27;;;;;;;-141.02;100.00;55225.69;5116097;28;20232;-68
2024/01/07 04:28:58;;;;;;;22.37;21.37;;;;;;;-141.02;100.00;57500.06;5115703;28;20189;-69
2024/01/07 04:31:25;;;;;;;21.17;20.27;;;;;;;-141.02;100.00;59721.97;5115972;28;20275;-69
2024/01/07 04:33:52;;;;;;;20.60;19.80;;;;;;;-141.02;100.00;61945.31;5115892;28;20201;-70
2024/01/07 04:36:19;;;;;;;20.73;19.93;;;;;;;-141.02;100.00;62933.94;5115836;28;20276;-68
2024/01/07 04:38:46;;;;;;;21.33;20.53;;;;;;;-141.02;100.00;63922.84;5115522;28;20225;-71
2024/01/07 04:41:13;;;;;;;22.10;21.20;;;;;;;-141.02;100.00;64417.41;5115749;28;20228;-68
2024/01/07 04:43:43;;;;;;;20.47;19.67;;;;;;;-141.02;100.00;65159.41;5115741;28;20645;-68
2024/01/07 04:46:12;;;;;;;19.17;18.47;;;;;;;-141.02;100.00;66148.94;5115732;28;20238;-71
2024/01/07 04:48:38;;;;;;;19.27;18.57;;;;;;;-141.02;100.00;66891.31;5115639;28;20203;-69
2024/01/07 04:51:06;;;;;;;19.37;18.67;;;;;;;-141.02;100.00;67633.81;5115311;28;20196;-68
2024/01/07 04:53:33;;;;;;;18.60;17.90;;;;;;;-141.02;100.00;67633.81;5115199;28;20288;-67
2024/01/07 04:56:00;;;;;;;19.07;18.20;;;;;;;-141.02;100.00;67633.81;5115270;28;20659;-69
2024/01/07 04:58:27;;;;;;;17.60;17.00;;;;;;;-141.02;100.00;67386.28;5115359;28;20193;-68
2024/01/07 05:00:55;;;;;;;18.90;18.20;;;;;;;-141.02;100.00;66891.31;5115065;28;20194;-67
2024/01/07 05:03:22;;;;;;;19.50;18.70;;;;;;;-141.02;100.00;66396.38;5114938;28;20235;-69
2024/01/07 05:05:49;;;;;;;20.73;19.93;;;;;;;-141.02;100.00;65901.53;5114537;28;20677;-67
2024/01/07 05:08:16;;;;;;;18.37;17.67;;;;;;;-141.02;100.00;64912.06;5114771;28;20272;-67
2024/01/07 05:10:43;;;;;;;23.40;22.40;;;;;;;-141.02;100.00;63675.59;5115216;28;20292;-68
2024/01/07 05:13:10;;;;;;;26.90;25.70;;;;;;;-141.02;100.00;62686.75;5115218;28;20284;-67
2024/01/07 05:15:37;;;;;;;26.73;25.43;;;;;;;-141.02;100.00;62192.44;5114729;28;20260;-67
2024/01/07 05:18:08;;;;;;;27.30;26.00;;;;;;;-141.02;100.00;61698.22;5115039;28;20199;-68
2024/01/07 05:20:35;;;;;;;25.60;24.40;;;;;;;-141.02;100.00;61451.13;5114813;28;20567;-67
2024/01/07 05:23:02;;;;;;;25.23;24.03;;;;;;;-141.02;100.00;61698.22;5114871;28;20200;-68
2024/01/07 05:25:29;;;;;;;26.57;25.27;;;;;;;-141.02;100.00;62192.44;5114954;28;20198;-67
2024/01/07 05:27:56;;;;;;;25.33;24.13;;;;;;;-141.02;100.00;63181.16;5114564;28;20246;-67
2024/01/07 05:30:23;;;;;;;26.43;25.13;;;;;;;-141.02;100.00;63675.59;5114513;28;20289;-67
2024/01/07 05:32:50;;;;;;;25.20;24.00;;;;;;;-141.02;100.00;64170.13;5114915;28;20197;-67
2024/01/07 05:35:20;;;;;;;30.23;28.73;;;;;;;-141.02;100.00;64664.72;5114407;28;20284;-66
2024/01/07 05:37:47;;;;;;;27.03;25.63;;;;;;;-141.02;100.00;65159.41;5115017;28;20229;-68
2024/01/07 05:40:14;;;;;;;23.07;21.97;;;;;;;-141.02;100.00;65406.75;5114223;28;20193;-68
2024/01/07 05:42:40;;;;;;;26.00;24.70;;;;;;;-141.02;100.00;65901.53;5114611;28;20271;-68
2024/01/07 05:45:08;;;;;;;25.70;24.40;;;;;;;-141.02;100.00;66396.38;5114222;28;20235;-68
2024/01/07 05:47:35;;;;;;;23.20;22.20;;;;;;;-141.02;100.00;67138.78;5114197;28;20233;-67
2024/01/07 05:50:02;;;;;;;25.80;24.60;;;;;;;-141.02;100.00;67386.28;5114135;28;20227;-67
2024/01/07 05:52:30;;;;;;;24.10;23.00;;;;;;;-141.02;100.00;67633.81;5114373;28;20270;-66
2024/01/07 05:54:57;;;;;;;23.50;22.40;;;;;;;-141.02;100.00;67633.81;5114344;28;20211;-65
2024/01/07 05:57:24;;;;;;;24.93;23.73;;;;;;;-141.02;100.00;67881.38;5113939;28;20200;-66
2024/01/07 05:59:52;;;;;;;22.83;21.73;;;;;;;-141.02;100.00;67881.38;5114006;28;20296;-67
2024/01/07 06:02:19;;;;;;;20.47;19.57;;;;;;;-141.02;100.00;68128.91;5113902;28;20189;-66
2024/01/07 06:04:46;;;;;;;20.37;19.37;;;;;;;-141.02;100.00;68128.91;5114328;28;20240;-66
2024/01/07 06:07:13;;;;;;;19.33;18.53;;;;;;;-141.02;100.00;67881.38;5114119;28;20276;-67
2024/01/07 06:09:41;;;;;;;18.20;17.43;;;;;;;-141.02;100.00;67138.78;5113982;28;20617;-69
2024/01/07 06:12:08;;;;;;;20.37;19.47;;;;;;;-141.02;100.00;65159.41;5113780;28;20288;-68
2024/01/07 06:14:36;;;;;;;21.50;20.50;;;;;;;-141.02;100.00;63181.16;5113873;28;20231;-69
2024/01/07 06:17:03;;;;;;;21.77;20.77;;;;;;;-141.02;100.00;62439.59;5113609;28;20565;-69
2024/01/07 06:19:31;;;;;;;23.10;22.00;;;;;;;-141.02;100.00;62439.59;5113433;28;20193;-68
2024/01/07 06:21:58;;;;;;;21.93;20.83;;;;;;;-141.02;100.00;62439.59;5113820;28;20280;-69
2024/01/07 06:24:25;;;;;;;17.80;17.10;;;;;;;-141.02;100.00;60957.00;5113691;28;20225;-70
2024/01/07 06:26:53;;;;;;;18.80;18.00;;;;;;;-141.02;100.00;57006.53;5113739;28;20585;-70
2024/01/07 06:29:20;;;;;;;24.93;23.73;;;;;;;-141.02;100.00;52113.41;5113419;28;20750;-70
2024/01/07 06:31:48;;;;;;;25.37;24.07;;;;;;;-141.02;100.00;51997.91;5113349;28;20201;-70
2024/01/07 06:34:15;;;;;;;25.97;24.67;;;;;;;-141.02;100.00;52665.94;5113274;28;20193;-69
2024/01/07 06:36:42;;;;;;;21.80;20.80;;;;;;;-141.02;100.00;51695.69;5113535;28;20197;-70
2024/01/07 06:39:08;;;;;;;25.13;23.83;;;;;;;-141.02;100.00;50265.88;5113197;28;20200;-69
2024/01/07 06:41:35;;;;;;;26.40;25.00;;;;;;;-141.02;100.00;50856.59;5113440;28;20197;-70
2024/01/07 06:44:04;;;;;;;25.17;23.97;;;;;;;-141.02;100.00;48603.97;5112997;28;20227;-69
2024/01/07 06:46:31;;;;;;;28.43;27.03;;;;;;;-141.02;100.00;48000.19;5113417;28;20227;-70
2024/01/07 06:48:58;;;;;;;26.90;25.50;;;;;;;-141.02;100.00;48503.97;5113418;28;20272;-70
2024/01/07 06:51:25;;;;;;;25.20;24.00;;;;;;;-141.02;100.00;48577.03;5113296;28;20612;-69
2024/01/07 06:53:52;;;;;;;23.97;22.87;;;;;;;-141.02;100.00;49342.47;5113270;28;20331;-70
2024/01/07 06:56:19;;;;;;;23.63;22.53;;;;;;;-141.02;100.00;49846.47;5113229;28;20272;-70
2024/01/07 06:58:46;;;;;;;23.53;22.43;;;;;;;-141.02;100.00;51158.72;5113179;28;20272;-70
2024/01/07 07:01:18;;;;;;;21.23;20.33;;;;;;;-141.02;100.00;51520.53;5112822;28;20201;-70
2024/01/07 07:03:45;;;;;;;20.97;20.07;;;;;;;-141.02;100.00;50823.88;5113034;28;20277;-69
2024/01/07 07:06:12;;;;;;;20.10;19.20;;;;;;;-141.02;100.00;50997.06;5112830;28;20288;-69
2024/01/07 07:08:39;;;;;;;19.20;18.40;;;;;;;-141.02;100.00;51770.75;5112989;28;20197;-70
2024/01/07 07:11:06;;;;;;;19.50;18.70;;;;;;;-141.02;100.00;50377.47;5112974;28;20200;-70
2024/01/07 07:13:33;;;;;;;20.07;19.27;;;;;;;-141.02;100.00;50188.91;5112661;28;20208;-70
2024/01/07 07:16:00;;;;;;;19.47;18.67;;;;;;;-141.02;100.00;50648.75;5112512;28;20817;-70
2024/01/07 07:18:29;;;;;;;18.30;17.60;;;;;;;-141.02;100.00;50415.94;5112602;28;20650;-70
2024/01/07 07:20:55;;;;;;;18.07;17.37;;;;;;;-141.02;100.00;48238.59;5112820;28;20279;-69
2024/01/07 07:23:22;;;;;;;19.50;18.70;;;;;;;-141.02;100.00;48184.75;5112579;28;20677;-71
2024/01/07 07:25:49;;;;;;;18.40;17.70;;;;;;;-141.02;100.00;47588.75;5112456;28;20706;-71
2024/01/07 07:28:17;;;;;;;16.90;16.20;;;;;;;-141.02;100.00;47771.38;5112454;28;20199;-70
2024/01/07 07:30:44;;;;;;;15.70;15.10;;;;;;;-141.02;100.00;48830.88;5112189;28;20201;-72
2024/01/07 07:33:11;;;;;;;14.60;14.10;;;;;;;-141.02;100.00;48540.50;5112726;28;20200;-71
2024/01/07 07:35:41;;;;;;;14.47;13.97;;;;;;;-141.02;100.00;48750.13;5112718;28;20279;-73
2024/01/07 07:38:08;;;;;;;13.70;13.20;;;;;;;-141.02;100.00;48369.34;5112644;28;20193;-69
2024/01/07 07:40:35;;;;;;;14.80;14.20;;;;;;;-141.02;100.00;47444.56;5112410;28;20635;-70
2024/01/07 07:43:03;;;;;;;15.03;14.43;;;;;;;-141.02;100.00;46733.38;5112283;28;20204;-72
2024/01/07 07:45:30;;;;;;;15.90;15.20;;;;;;;-141.02;100.00;46685.31;5112225;28;20224;-71
2024/01/07 07:47:57;;;;;;;15.80;15.10;;;;;;;-141.02;100.00;46470.06;5112238;28;20195;-69
2024/01/07 07:50:24;;;;;;;15.13;14.53;;;;;;;-141.02;100.00;46737.22;5112474;28;20280;-71
2024/01/07 07:52:53;;;;;;;15.20;14.60;;;;;;;-141.02;100.00;46654.56;5112268;28;20210;-69
2024/01/07 07:55:20;;;;;;;15.07;14.47;;;;;;;-141.02;100.00;46681.47;5112558;28;20193;-71
2024/01/07 07:57:47;;;;;;;15.00;14.40;;;;;;;-141.02;100.00;46662.25;5113039;28;20229;-73
2024/01/07 08:00:15;;;;;;;15.17;14.57;;;;;;;-141.02;100.00;46746.81;5112158;28;20201;-70
2024/01/07 08:02:42;;;;;;;14.70;14.10;;;;;;;-141.02;100.00;46762.19;5112045;28;20203;-73
2024/01/07 08:05:09;;;;;;;14.70;14.20;;;;;;;-141.02;100.00;47092.78;5112348;28;20294;-77
2024/01/07 08:07:36;;;;;;;14.60;14.10;;;;;;;-141.02;100.00;46819.84;5112364;28;20190;-71
2024/01/07 08:10:06;;;;;;;14.83;14.33;;;;;;;-141.02;100.00;46927.50;5112117;28;20288;-73
2024/01/07 08:12:35;;;;;;;15.10;14.57;;;;;;;-141.02;100.00;47023.59;5112146;28;20189;-71
2024/01/07 08:15:02;;;;;;;13.90;13.40;;;;;;;-141.02;100.00;47550.31;5112042;28;20235;-71
2024/01/07 08:17:29;;;;;;;14.40;13.90;;;;;;;-141.02;100.00;47242.72;5112386;28;20200;-71
2024/01/07 08:19:56;;;;;;;15.23;14.63;;;;;;;-141.02;100.00;46654.56;5112345;28;20535;-70
2024/01/07 08:22:23;;;;;;;15.37;14.77;;;;;;;-141.02;100.00;46500.81;5111974;28;20201;-70
2024/01/07 08:24:51;;;;;;;15.30;14.70;;;;;;;-141.02;100.00;46443.16;5111827;28;20640;-72
2024/01/07 08:27:19;;;;;;;15.50;14.90;;;;;;;-141.02;100.00;46420.09;5112243;28;20225;-73
2024/01/07 08:29:46;;;;;;;16.13;15.43;;;;;;;-141.02;100.00;46381.66;5112215;28;20284;-72
2024/01/07 08:32:13;;;;;;;15.80;15.20;;;;;;;-141.02;100.00;46604.59;5111825;28;20674;-75
2024/01/07 08:34:40;;;;;;;15.87;15.17;;;;;;;-141.02;100.00;46177.97;5112261;28;20228;-71
2024/01/07 08:37:08;;;;;;;16.23;15.52;;;;;;;-141.02;100.00;45947.38;5111806;28;20201;-72
2024/01/07 08:39:35;;;;;;;15.70;15.00;;;;;;;-141.02;100.00;46562.31;5111834;28;20667;-73
2024/01/07 08:42:03;;;;;;;15.87;15.17;;;;;;;-141.02;100.00;47115.84;5113300;28;20333;-74
2024/01/07 08:44:32;;;;;;;15.50;14.80;;;;;;;-141.02;100.00;47165.84;5115989;28;20260;-75
2024/01/07 08:47:00;;;;;;;15.95;15.18;;;;;;;-141.02;100.00;47231.19;5115762;28;20225;-72
2024/01/07 08:49:28;;;;;;;15.40;14.70;;;;;;;-141.02;100.00;47461.88;5115632;28;20228;-74
2024/01/07 08:51:56;;;;;;;15.43;14.73;;;;;;;-141.02;100.00;47581.06;5115615;28;20199;-72
2024/01/07 08:54:23;;;;;;;15.47;14.77;;;;;;;-141.02;100.00;47369.59;5115436;28;20205;-74
2024/01/07 08:56:50;;;;;;;15.50;14.80;;;;;;;-141.02;100.00;48219.38;5115203;28;20199;-72
2024/01/07 08:59:17;;;;;;;16.17;15.37;;;;;;;-141.02;100.00;47819.44;5115157;28;20193;-72
2024/01/07 09:01:44;;;;;;;15.88;15.07;;;;;;;-141.02;100.00;47504.16;5115134;28;20578;-75
2024/01/07 09:04:11;;;;;;;16.42;15.63;;;;;;;-141.02;100.00;47729.09;5114943;28;20698;-72
2024/01/07 09:06:39;;;;;;;16.50;15.75;;;;;;;-141.02;100.00;47458.03;5115295;28;20644;-74
2024/01/07 09:09:06;;;;;;;17.60;16.80;;;;;;;-141.02;100.00;47254.25;5115287;28;20197;-72
2024/01/07 09:11:34;;;;;;;17.90;17.10;;;;;;;-141.02;100.00;47211.97;5115196;28;20193;-74
2024/01/07 09:14:01;;;;;;;17.52;16.73;;;;;;;-141.02;100.00;47054.34;5114711;28;20215;-75
2024/01/07 09:16:28;;;;;;;17.33;16.42;;;;;;;-141.02;100.00;46869.81;5114774;28;20288;-77
2024/01/07 09:18:56;;;;;;;15.63;14.93;;;;;;;-141.02;100.00;46902.50;5114790;28;20685;-76
2024/01/07 09:21:24;;;;;;;15.80;15.10;;;;;;;-141.02;100.00;47088.94;5114999;28;20279;-75
2024/01/07 09:23:51;;;;;;;15.68;14.98;;;;;;;-141.02;100.00;47261.94;5114927;28;20220;-79
2024/01/07 09:26:17;;;;;;;16.40;15.60;;;;;;;-141.02;100.00;46885.19;5115052;28;20229;-79
2024/01/07 09:28:45;;;;;;;15.38;14.68;;;;;;;-141.02;100.00;47285.00;5114577;28;20200;-78
2024/01/07 09:31:12;;;;;;;16.92;16.10;;;;;;;-141.02;100.00;47013.97;5114839;28;20200;-78
2024/01/07 09:33:39;;;;;;;16.35;15.55;;;;;;;-141.02;100.00;47177.38;5114846;28;20189;-79
2024/01/07 09:36:08;;;;;;;16.60;15.80;;;;;;;-141.02;100.00;47346.53;5114410;28;20288;-78
2024/01/07 09:38:35;;;;;;;17.00;16.10;;;;;;;-141.02;100.00;47000.53;5114394;28;20292;-78
2024/01/07 09:41:02;;;;;;;16.15;15.25;;;;;;;-141.02;100.00;46573.84;5114368;28;20675;-78
2024/01/07 09:43:29;;;;;;;16.35;15.45;;;;;;;-141.02;100.00;46447.00;5114235;28;20197;-77
2024/01/07 09:45:58;;;;;;;16.25;15.35;;;;;;;-141.02;100.00;46349.00;5114449;28;20225;-76
2024/01/07 09:48:25;;;;;;;15.35;14.65;;;;;;;-141.02;100.00;46783.34;5114443;28;20198;-75
2024/01/07 09:50:53;;;;;;;16.83;16.02;;;;;;;-141.02;100.00;46716.06;5114485;28;20193;-75
2024/01/07 09:53:26;;;;;;;17.10;16.20;;;;;;;-141.02;100.00;46370.13;5113570;28;20280;-75
2024/01/07 09:56:02;;;;;;;16.60;15.70;;;;;;;-141.02;100.00;46358.59;5114101;28;20229;-75
2024/01/07 09:58:29;;;;;;;16.65;15.75;;;;;;;-141.02;100.00;46687.22;5114262;28;20192;-74
2024/01/07 10:00:56;;;;;;;17.60;16.60;;;;;;;-141.02;100.00;46170.28;5114012;28;20243;-73
2024/01/07 10:03:24;;;;;;;16.73;15.73;;;;;;;-141.02;100.00;45935.84;5113922;28;20228;-73
2024/01/07 10:05:51;;;;;;;17.05;16.05;;;;;;;-141.02;100.00;46397.03;5113762;28;20720;-73
2024/01/07 10:08:18;;;;;;;17.85;16.75;;;;;;;-141.02;100.00;45490.06;5113733;28;20641;-73
2024/01/07 10:10:46;;;;;;;17.90;16.80;;;;;;;-141.02;100.00;45887.81;5113999;28;20287;-73
2024/01/07 10:13:13;;;;;;;18.20;17.00;;;;;;;-141.02;100.00;45559.25;5113807;28;20550;-74
2024/01/07 10:15:40;;;;;;;17.17;16.08;;;;;;;-141.02;100.00;46358.59;5113468;28;20773;-73
2024/01/07 10:18:08;;;;;;;18.60;17.40;;;;;;;-141.02;100.00;45616.88;5113970;28;20194;-73
2024/01/07 10:20:36;;;;;;;17.77;16.65;;;;;;;-141.02;100.00;45294.13;5113863;28;20246;-74
2024/01/07 10:23:03;;;;;;;18.17;16.98;;;;;;;-141.02;100.00;44740.88;5113854;28;20207;-73
2024/01/07 10:25:32;;;;;;;18.40;17.20;;;;;;;-141.02;100.00;44921.44;5113445;28;20706;-74
2024/01/07 10:28:02;;;;;;;18.15;16.95;;;;;;;-141.02;100.00;44863.81;5113766;28;20197;-74
2024/01/07 10:30:29;;;;;;;17.95;16.75;;;;;;;-141.02;100.00;45090.47;5113697;28;20185;-74
2024/01/07 10:33:00;;;;;;;18.67;17.38;;;;;;;-141.02;100.00;44523.81;5113551;28;20201;-75
2024/01/07 10:35:30;;;;;;;18.55;17.25;;;;;;;-141.02;100.00;44581.44;5113506;28;20215;-74
2024/01/07 10:37:57;;;;;;;17.65;16.55;;;;;;;-141.02;100.00;45374.81;5113541;28;20208;-74
2024/01/07 10:40:26;;;;;;;17.65;16.50;;;;;;;-141.02;100.00;45251.84;5113547;28;20197;-74
2024/01/07 10:42:55;;;;;;;18.27;16.98;;;;;;;-141.02;100.00;45536.19;5113375;28;20285;-74
2024/01/07 10:45:24;;;;;;;19.45;17.95;;;;;;;-141.02;100.00;44533.41;5112977;28;20224;-73
2024/01/07 10:47:52;;;;;;;19.90;18.30;;;;;;;-141.02;100.00;44510.38;5113008;28;20726;-74
2024/01/07 10:50:19;;;;;;;20.40;18.70;;;;;;;-141.02;100.00;45013.63;5113032;28;20280;-74
2024/01/07 10:52:51;;;;;;;20.20;18.55;;;;;;;-141.02;100.00;45584.22;5113231;28;20219;-73
2024/01/07 10:55:20;;;;;;;21.42;19.63;;;;;;;-141.02;100.00;45165.41;5113245;28;20185;-74
2024/01/07 10:57:49;;;;;;;21.80;19.90;;;;;;;-141.02;99.36;44379.78;5113148;28;20204;-75
2024/01/07 11:00:19;;;;;;;22.33;20.42;;;;;;;-141.02;99.68;44018.72;5113113;28;20193;-75